createdAt,value
2023-03-17T00:01:49.011Z,0.53
2023-03-17T00:04:15.659Z,0.48
2023-03-17T00:06:42.330Z,0.62
2023-03-17T00:09:16.887Z,0.72
2023-03-17T00:11:44.280Z,0.52
2023-03-17T00:14:11.614Z,0.37
2023-03-17T00:16:41.330Z,0.32
2023-03-17T00:19:15.492Z,0.11
2023-03-17T00:21:42.338Z,0.15
2023-03-17T00:24:13.590Z,0.11
2023-03-17T00:26:41.314Z,0.51
2023-03-17T00:29:07.977Z,0.38
2023-03-17T00:31:34.967Z,0.19
2023-03-17T00:34:02.084Z,0.17
2023-03-17T00:36:31.631Z,0.24
2023-03-17T00:38:58.586Z,0.17
2023-03-17T00:41:25.704Z,0.12
2023-03-17T00:43:52.509Z,-0.04
2023-03-17T00:46:30.160Z,-0.00
2023-03-17T00:48:56.995Z,0.11
2023-03-17T00:51:23.735Z,0.31
2023-03-17T00:53:50.726Z,0.36
2023-03-17T00:56:20.250Z,0.27
2023-03-17T00:58:48.483Z,0.10
2023-03-17T01:01:15.473Z,0.07
2023-03-17T01:03:42.337Z,0.10
2023-03-17T01:06:12.289Z,0.01
2023-03-17T01:08:40.568Z,0.04
2023-03-17T01:11:13.052Z,-0.06
2023-03-17T01:13:39.651Z,-0.10
2023-03-17T01:16:10.049Z,-0.16
2023-03-17T01:18:36.914Z,0.00
2023-03-17T01:21:04.014Z,-0.05
2023-03-17T01:23:30.826Z,-0.19
2023-03-17T01:25:57.700Z,-0.25
2023-03-17T01:28:24.325Z,-0.35
2023-03-17T01:30:51.033Z,-0.47
2023-03-17T01:33:17.764Z,-0.45
2023-03-17T01:35:44.800Z,-0.35
2023-03-17T01:38:11.600Z,-0.31
2023-03-17T01:40:47.365Z,-0.29
2023-03-17T01:43:20.739Z,-0.36
2023-03-17T01:46:13.552Z,-0.45
2023-03-17T01:48:44.154Z,-0.40
2023-03-17T01:51:16.367Z,-0.39
2023-03-17T01:53:46.013Z,-0.45
2023-03-17T01:56:12.997Z,-0.49
2023-03-17T01:58:39.713Z,-0.55
2023-03-17T02:01:06.990Z,-0.50
2023-03-17T02:03:33.652Z,-0.22
2023-03-17T02:06:01.707Z,-0.19
2023-03-17T02:08:28.372Z,-0.30
2023-03-17T02:10:56.232Z,-0.52
2023-03-17T02:13:23.252Z,-0.54
2023-03-17T02:15:51.889Z,-0.28
2023-03-17T02:18:20.988Z,-0.44
2023-03-17T02:20:47.589Z,-0.59
2023-03-17T02:23:21.304Z,-0.50
2023-03-17T02:25:48.861Z,-0.31
2023-03-17T02:28:19.612Z,-0.34
2023-03-17T02:30:46.374Z,-0.42
2023-03-17T02:33:13.077Z,-0.02
2023-03-17T02:35:40.562Z,0.01
2023-03-17T02:38:07.306Z,-0.44
2023-03-17T02:40:34.000Z,-0.56
2023-03-17T02:43:01.201Z,-0.70
2023-03-17T02:45:27.879Z,-0.68
2023-03-17T02:47:55.507Z,-0.56
2023-03-17T02:50:24.278Z,-0.55
2023-03-17T02:52:51.076Z,-0.55
2023-03-17T02:55:17.802Z,-0.49
2023-03-17T02:57:44.679Z,-0.42
2023-03-17T03:00:12.324Z,-0.62
2023-03-17T03:02:39.015Z,-0.49
2023-03-17T03:05:06.821Z,-0.28
2023-03-17T03:07:33.507Z,-0.09
2023-03-17T03:10:00.221Z,-0.05
2023-03-17T03:12:26.872Z,0.13
2023-03-17T03:14:53.505Z,0.22
2023-03-17T03:17:21.247Z,0.20
2023-03-17T03:19:47.995Z,-0.14
2023-03-17T03:22:15.184Z,-0.16
2023-03-17T03:24:42.027Z,0.10
2023-03-17T03:27:08.760Z,0.22
2023-03-17T03:29:35.612Z,0.29
2023-03-17T03:32:02.235Z,0.36
2023-03-17T03:34:28.853Z,0.12
2023-03-17T03:36:55.583Z,0.03
2023-03-17T03:39:22.286Z,0.20
2023-03-17T03:41:49.063Z,0.36
2023-03-17T03:44:15.670Z,0.14
2023-03-17T03:46:43.654Z,0.13
2023-03-17T03:49:10.310Z,-0.36
2023-03-17T03:51:37.006Z,-0.07
2023-03-17T03:54:04.010Z,-0.11
2023-03-17T03:56:30.717Z,-0.08
2023-03-17T03:59:00.532Z,-0.26
2023-03-17T04:01:27.180Z,-0.63
2023-03-17T04:03:53.859Z,-0.53
2023-03-17T04:06:20.620Z,-0.38
2023-03-17T04:08:47.528Z,-0.65
2023-03-17T04:11:14.205Z,-0.41
2023-03-17T04:13:40.866Z,-0.32
2023-03-17T04:16:08.664Z,-0.53
2023-03-17T04:18:35.415Z,-0.88
2023-03-17T04:21:02.145Z,-1.04
2023-03-17T04:23:28.768Z,-0.80
2023-03-17T04:25:55.400Z,-0.79
2023-03-17T04:28:22.063Z,-1.08
2023-03-17T04:30:48.689Z,-1.06
2023-03-17T04:33:15.398Z,-0.77
2023-03-17T04:35:42.423Z,-0.78
2023-03-17T04:38:11.994Z,-0.79
2023-03-17T04:40:38.824Z,-0.81
2023-03-17T04:43:05.804Z,-1.01
2023-03-17T04:45:32.590Z,-1.11
2023-03-17T04:47:59.237Z,-1.09
2023-03-17T04:50:25.954Z,-0.72
2023-03-17T04:52:52.762Z,-0.68
2023-03-17T04:55:19.748Z,-0.74
2023-03-17T04:57:46.423Z,-0.62
2023-03-17T05:00:13.634Z,-0.73
2023-03-17T05:02:40.282Z,-0.47
2023-03-17T05:05:07.438Z,-0.47
2023-03-17T05:07:34.337Z,-0.80
2023-03-17T05:10:01.315Z,-0.91
2023-03-17T05:12:28.467Z,-0.75
2023-03-17T05:14:55.217Z,-0.77
2023-03-17T05:17:21.865Z,-0.97
2023-03-17T05:19:48.656Z,-0.89
2023-03-17T05:22:15.452Z,-0.87
2023-03-17T05:24:42.204Z,-1.10
2023-03-17T05:27:09.911Z,-1.27
2023-03-17T05:29:36.562Z,-1.19
2023-03-17T05:32:03.299Z,-1.38
2023-03-17T05:34:29.932Z,-1.20
2023-03-17T05:36:56.660Z,-1.15
2023-03-17T05:39:23.337Z,-1.24
2023-03-17T05:41:49.979Z,-1.32
2023-03-17T05:44:16.783Z,-1.52
2023-03-17T05:46:43.425Z,-1.67
2023-03-17T05:49:10.169Z,-1.54
2023-03-17T05:51:37.147Z,-1.47
2023-03-17T05:54:03.865Z,-1.40
2023-03-17T05:56:30.551Z,-1.52
2023-03-17T05:58:57.255Z,-1.42
2023-03-17T06:01:23.839Z,-1.22
2023-03-17T06:03:50.461Z,-1.17
2023-03-17T06:06:17.153Z,-1.17
2023-03-17T06:08:43.767Z,-0.95
2023-03-17T06:11:10.535Z,-1.05
2023-03-17T06:13:37.224Z,-1.30
2023-03-17T06:16:04.029Z,-0.96
2023-03-17T06:18:30.674Z,-1.09
2023-03-17T06:20:57.423Z,-1.41
2023-03-17T06:23:24.367Z,-1.24
2023-03-17T06:25:51.124Z,-1.19
2023-03-17T06:28:17.745Z,-0.98
2023-03-17T06:30:44.439Z,-0.88
2023-03-17T06:33:11.200Z,-0.67
2023-03-17T06:35:38.107Z,-0.68
2023-03-17T06:38:04.893Z,-0.52
2023-03-17T06:40:34.228Z,-0.86
2023-03-17T06:43:01.020Z,-0.51
2023-03-17T06:45:27.835Z,-0.65
2023-03-17T06:47:54.682Z,-0.36
2023-03-17T06:50:21.319Z,-0.09
2023-03-17T06:52:48.166Z,-0.18
2023-03-17T06:55:14.776Z,-0.10
2023-03-17T06:57:41.836Z,0.06
2023-03-17T07:00:09.403Z,0.11
2023-03-17T07:02:36.058Z,0.17
2023-03-17T07:05:02.857Z,0.25
2023-03-17T07:07:29.537Z,0.58
2023-03-17T07:09:56.176Z,1.00
2023-03-17T07:12:22.846Z,1.40
2023-03-17T07:14:49.739Z,1.52
2023-03-17T07:17:16.520Z,1.93
2023-03-17T07:19:43.264Z,1.95
2023-03-17T07:22:11.838Z,2.06
2023-03-17T07:24:39.316Z,2.12
2023-03-17T07:27:06.079Z,2.16
2023-03-17T07:29:33.015Z,2.15
2023-03-17T07:31:59.707Z,2.53
2023-03-17T07:34:26.341Z,2.82
2023-03-17T07:36:53.029Z,2.99
2023-03-17T07:39:19.719Z,2.81
2023-03-17T07:41:46.352Z,2.92
2023-03-17T07:44:13.012Z,3.17
2023-03-17T07:46:39.760Z,3.78
2023-03-17T07:49:06.513Z,3.94
2023-03-17T07:51:33.286Z,3.91
2023-03-17T07:54:00.031Z,3.85
2023-03-17T07:56:26.708Z,4.24
2023-03-17T07:58:53.412Z,4.05
2023-03-17T08:01:20.007Z,4.35
2023-03-17T08:03:46.696Z,4.28
2023-03-17T08:06:13.493Z,4.60
2023-03-17T08:08:40.288Z,4.41
2023-03-17T08:11:06.904Z,4.52
2023-03-17T08:13:34.340Z,4.73
2023-03-17T08:16:01.526Z,4.89
2023-03-17T08:18:28.226Z,5.06
2023-03-17T08:20:54.969Z,5.14
2023-03-17T08:23:21.639Z,5.14
2023-03-17T08:25:48.847Z,5.25
2023-03-17T08:28:15.534Z,5.32
2023-03-17T08:30:43.581Z,5.23
2023-03-17T08:33:10.841Z,5.48
2023-03-17T08:35:40.805Z,5.65
2023-03-17T08:38:07.752Z,5.65
2023-03-17T08:40:34.815Z,5.75
2023-03-17T08:43:01.612Z,5.88
2023-03-17T08:45:28.587Z,6.30
2023-03-17T08:47:55.349Z,6.30
2023-03-17T08:50:23.780Z,6.31
2023-03-17T08:52:51.301Z,6.09
2023-03-17T08:55:18.921Z,5.99
2023-03-17T08:57:45.745Z,6.27
2023-03-17T09:00:16.334Z,6.39
2023-03-17T09:02:44.003Z,6.65
2023-03-17T09:05:16.314Z,6.67
2023-03-17T09:07:42.947Z,6.64
2023-03-17T09:10:10.508Z,6.68
2023-03-17T09:12:37.434Z,6.64
2023-03-17T09:15:05.633Z,6.82
2023-03-17T09:17:32.272Z,6.86
2023-03-17T09:19:58.919Z,7.08
2023-03-17T09:22:25.653Z,7.10
2023-03-17T09:24:52.414Z,7.33
2023-03-17T09:27:19.028Z,6.97
2023-03-17T09:29:45.745Z,7.41
2023-03-17T09:32:12.336Z,7.47
2023-03-17T09:34:38.947Z,7.39
2023-03-17T09:37:05.623Z,7.89
2023-03-17T09:39:32.248Z,7.94
2023-03-17T09:42:18.195Z,8.08
2023-03-17T09:45:02.067Z,7.72
2023-03-17T09:47:50.426Z,7.61
2023-03-17T09:50:33.171Z,7.90
2023-03-17T09:53:03.831Z,7.91
2023-03-17T09:55:32.593Z,7.92
2023-03-17T09:57:59.819Z,7.90
2023-03-17T10:00:28.935Z,8.07
2023-03-17T10:02:56.367Z,8.21
2023-03-17T10:05:28.773Z,8.02
2023-03-17T10:08:31.203Z,8.16
2023-03-17T10:11:37.736Z,8.35
2023-03-17T10:14:16.371Z,8.05
2023-03-17T10:17:00.925Z,8.38
2023-03-17T10:19:35.671Z,8.56
2023-03-17T10:22:14.089Z,8.47
2023-03-17T10:24:45.164Z,8.77
2023-03-17T10:27:15.237Z,8.92
2023-03-17T10:29:41.943Z,9.14
2023-03-17T10:32:13.294Z,9.10
2023-03-17T10:34:41.322Z,8.99
2023-03-17T10:37:14.355Z,9.10
2023-03-17T10:39:52.890Z,8.55
2023-03-17T10:42:46.983Z,8.61
2023-03-17T10:45:27.563Z,8.53
2023-03-17T10:47:56.073Z,8.37
2023-03-17T10:50:26.975Z,8.61
2023-03-17T10:53:23.665Z,8.91
2023-03-17T10:55:52.667Z,9.20
2023-03-17T10:58:38.226Z,9.34
2023-03-17T11:01:28.223Z,9.49
2023-03-17T11:03:55.120Z,9.36
2023-03-17T11:06:42.046Z,9.32
2023-03-17T11:09:12.050Z,9.30
2023-03-17T11:11:50.476Z,8.77
2023-03-17T11:14:18.954Z,9.16
2023-03-17T11:17:01.075Z,9.45
2023-03-17T11:20:08.039Z,9.49
2023-03-17T11:22:44.019Z,9.51
2023-03-17T11:25:16.478Z,9.83
2023-03-17T11:27:56.800Z,9.65
2023-03-17T11:30:42.619Z,9.83
2023-03-17T11:33:24.989Z,9.57
2023-03-17T11:35:56.576Z,9.66
2023-03-17T11:38:27.182Z,9.34
2023-03-17T11:41:18.720Z,9.49
2023-03-17T11:44:12.794Z,9.51
2023-03-17T11:46:42.510Z,9.95
2023-03-17T11:49:18.093Z,10.02
2023-03-17T11:52:10.770Z,9.71
2023-03-17T11:55:01.861Z,10.09
2023-03-17T11:57:38.070Z,10.36
2023-03-17T12:00:23.578Z,10.68
2023-03-17T12:02:59.066Z,10.65
2023-03-17T12:05:27.861Z,10.23
2023-03-17T12:08:20.597Z,10.37
2023-03-17T12:10:59.379Z,9.94
2023-03-17T12:13:36.953Z,10.11
2023-03-17T12:16:28.627Z,10.10
2023-03-17T12:19:14.274Z,10.23
2023-03-17T12:21:50.952Z,10.24
2023-03-17T12:24:25.825Z,10.10
2023-03-17T12:27:01.149Z,9.79
2023-03-17T12:29:51.677Z,9.95
2023-03-17T12:32:19.652Z,10.11
2023-03-17T12:34:57.417Z,10.53
2023-03-17T12:37:26.923Z,10.61
2023-03-17T12:40:12.739Z,10.96
2023-03-17T12:42:51.777Z,10.66
2023-03-17T12:45:37.206Z,10.80
2023-03-17T12:48:43.723Z,11.43
2023-03-17T12:51:52.736Z,10.89
2023-03-17T12:54:31.636Z,11.08
2023-03-17T12:57:21.612Z,11.19
2023-03-17T13:00:00.942Z,11.09
2023-03-17T13:02:27.508Z,11.27
2023-03-17T13:04:57.099Z,11.33
2023-03-17T13:07:49.250Z,11.28
2023-03-17T13:10:38.533Z,11.07
2023-03-17T13:13:32.503Z,10.38
2023-03-17T13:16:03.744Z,10.61
2023-03-17T13:18:36.327Z,10.91
2023-03-17T13:21:02.981Z,11.21
2023-03-17T13:23:47.207Z,11.22
2023-03-17T13:26:18.860Z,11.22
2023-03-17T13:28:48.836Z,10.23
2023-03-17T13:31:27.450Z,10.65
2023-03-17T13:33:56.598Z,11.34
2023-03-17T13:36:47.454Z,10.58
2023-03-17T13:39:34.306Z,10.67
2023-03-17T13:42:18.088Z,10.85
2023-03-17T13:45:11.655Z,10.55
2023-03-17T13:47:40.629Z,10.59
2023-03-17T13:50:16.243Z,10.70
2023-03-17T13:52:49.845Z,10.70
2023-03-17T13:55:19.450Z,10.85
2023-03-17T13:58:10.483Z,11.22
2023-03-17T14:00:45.428Z,11.11
2023-03-17T14:03:19.613Z,11.17
2023-03-17T14:05:49.667Z,10.88
2023-03-17T14:08:22.555Z,11.23
2023-03-17T14:10:58.173Z,11.10
2023-03-17T14:13:32.444Z,11.17
2023-03-17T14:16:06.733Z,11.48
2023-03-17T14:18:40.447Z,11.38
2023-03-17T14:21:22.838Z,11.10
2023-03-17T14:23:54.054Z,10.94
2023-03-17T14:26:23.460Z,10.97
2023-03-17T14:28:50.207Z,10.99
2023-03-17T14:31:25.379Z,11.44
2023-03-17T14:33:59.460Z,10.92
2023-03-17T14:36:28.258Z,11.44
2023-03-17T14:38:56.842Z,11.46
2023-03-17T14:41:28.003Z,11.29
2023-03-17T14:43:59.298Z,10.50
2023-03-17T14:46:37.720Z,10.66
2023-03-17T14:49:16.583Z,10.95
2023-03-17T14:51:43.731Z,10.30
2023-03-17T14:54:24.097Z,10.96
2023-03-17T14:57:02.815Z,10.89
2023-03-17T14:59:33.978Z,11.09
2023-03-17T15:02:04.246Z,11.39
2023-03-17T15:04:33.324Z,11.44
2023-03-17T15:07:06.828Z,11.64
2023-03-17T15:09:33.386Z,11.19
2023-03-17T15:12:22.381Z,10.99
2023-03-17T15:14:57.521Z,10.89
2023-03-17T15:17:35.660Z,10.63
2023-03-17T15:20:08.467Z,11.07
2023-03-17T15:22:35.046Z,11.42
2023-03-17T15:25:02.433Z,10.96
2023-03-17T15:27:31.021Z,11.39
2023-03-17T15:29:57.755Z,11.70
2023-03-17T15:32:26.747Z,11.79
2023-03-17T15:34:55.646Z,11.25
2023-03-17T15:37:28.477Z,11.28
2023-03-17T15:39:56.194Z,11.28
2023-03-17T15:42:28.581Z,10.73
2023-03-17T15:44:55.312Z,11.17
2023-03-17T15:47:24.821Z,11.57
2023-03-17T15:49:52.038Z,11.73
2023-03-17T15:52:22.202Z,11.89
2023-03-17T15:54:49.050Z,11.95
2023-03-17T15:57:15.690Z,12.20
2023-03-17T15:59:42.642Z,12.30
2023-03-17T16:02:30.676Z,12.27
2023-03-17T16:04:59.158Z,12.53
2023-03-17T16:07:26.211Z,12.40
2023-03-17T16:09:52.877Z,12.45
2023-03-17T16:12:19.500Z,12.42
2023-03-17T16:14:46.151Z,11.66
2023-03-17T16:17:22.200Z,11.55
2023-03-17T16:19:49.394Z,10.65
2023-03-17T16:22:35.580Z,10.57
2023-03-17T16:25:04.022Z,10.83
2023-03-17T16:27:30.689Z,10.86
2023-03-17T16:29:57.332Z,10.92
2023-03-17T16:32:24.379Z,10.96
2023-03-17T16:34:51.059Z,10.90
2023-03-17T16:37:20.117Z,10.62
2023-03-17T16:39:46.784Z,10.81
2023-03-17T16:42:22.373Z,10.72
2023-03-17T16:44:49.257Z,10.49
2023-03-17T16:47:15.898Z,10.47
2023-03-17T16:49:42.480Z,10.52
2023-03-17T16:52:09.315Z,10.06
2023-03-17T16:54:38.288Z,10.00
2023-03-17T16:57:07.562Z,9.82
2023-03-17T16:59:34.757Z,9.24
2023-03-17T17:02:01.449Z,9.51
2023-03-17T17:04:28.143Z,9.46
2023-03-17T17:06:54.911Z,9.21
2023-03-17T17:09:21.599Z,8.93
2023-03-17T17:11:48.293Z,8.81
2023-03-17T17:14:14.923Z,9.04
2023-03-17T17:16:41.699Z,9.01
2023-03-17T17:19:16.313Z,8.93
2023-03-17T17:21:44.348Z,8.69
2023-03-17T17:24:13.009Z,8.68
2023-03-17T17:26:39.990Z,8.56
2023-03-17T17:29:06.661Z,8.39
2023-03-17T17:31:33.352Z,8.22
2023-03-17T17:34:00.054Z,8.26
2023-03-17T17:36:27.205Z,7.88
2023-03-17T17:38:53.911Z,7.68
2023-03-17T17:41:20.521Z,7.75
2023-03-17T17:43:47.787Z,7.60
2023-03-17T17:46:22.229Z,7.67
2023-03-17T17:48:49.747Z,7.43
2023-03-17T17:51:16.488Z,7.69
2023-03-17T17:53:43.779Z,7.55
2023-03-17T17:56:15.026Z,7.36
2023-03-17T17:58:42.594Z,7.37
2023-03-17T18:01:09.954Z,7.45
2023-03-17T18:03:36.588Z,7.43
2023-03-17T18:06:03.330Z,7.36
2023-03-17T18:08:29.959Z,7.44
2023-03-17T18:10:56.624Z,7.32
2023-03-17T18:13:23.494Z,7.18
2023-03-17T18:15:50.143Z,7.07
2023-03-17T18:18:16.849Z,6.94
2023-03-17T18:20:43.556Z,6.81
2023-03-17T18:23:10.345Z,6.83
2023-03-17T18:25:36.963Z,6.54
2023-03-17T18:28:03.715Z,6.70
2023-03-17T18:30:32.322Z,6.56
2023-03-17T18:33:13.765Z,6.53
2023-03-17T18:35:41.327Z,6.53
2023-03-17T18:38:08.009Z,6.33
2023-03-17T18:40:35.574Z,6.22
2023-03-17T18:43:02.281Z,6.09
2023-03-17T18:45:28.875Z,6.12
2023-03-17T18:47:55.520Z,6.02
2023-03-17T18:50:22.251Z,5.84
2023-03-17T18:52:49.576Z,5.77
2023-03-17T18:55:16.348Z,5.86
2023-03-17T18:57:44.764Z,5.84
2023-03-17T19:00:14.059Z,5.84
2023-03-17T19:02:40.679Z,5.75
2023-03-17T19:05:07.837Z,5.75
2023-03-17T19:07:34.889Z,5.58
2023-03-17T19:10:01.613Z,5.53
2023-03-17T19:12:28.286Z,5.50
2023-03-17T19:14:54.902Z,5.46
2023-03-17T19:17:21.794Z,5.41
2023-03-17T19:19:48.516Z,5.31
2023-03-17T19:22:15.183Z,5.26
2023-03-17T19:24:41.948Z,5.25
2023-03-17T19:27:08.923Z,5.15
2023-03-17T19:29:35.534Z,5.56
2023-03-17T19:32:02.147Z,5.30
2023-03-17T19:34:28.813Z,4.97
2023-03-17T19:36:55.562Z,4.81
2023-03-17T19:39:22.511Z,4.80
2023-03-17T19:41:49.261Z,4.75
2023-03-17T19:44:15.987Z,4.57
2023-03-17T19:46:42.646Z,4.32
2023-03-17T19:49:09.374Z,4.53
2023-03-17T19:51:36.020Z,4.38
2023-03-17T19:54:02.940Z,4.34
2023-03-17T19:56:29.596Z,4.45
2023-03-17T19:58:56.256Z,4.48
2023-03-17T20:01:23.183Z,4.33
2023-03-17T20:03:50.332Z,4.20
2023-03-17T20:06:17.284Z,4.28
2023-03-17T20:08:44.642Z,4.06
2023-03-17T20:11:12.801Z,4.26
2023-03-17T20:13:40.134Z,4.10
2023-03-17T20:16:08.208Z,4.06
2023-03-17T20:18:35.998Z,4.01
2023-03-17T20:21:03.282Z,3.99
2023-03-17T20:23:29.938Z,3.87
2023-03-17T20:25:56.590Z,3.71
2023-03-17T20:28:23.564Z,3.73
2023-03-17T20:30:50.482Z,3.75
2023-03-17T20:33:17.361Z,3.83
2023-03-17T20:35:45.544Z,3.64
2023-03-17T20:38:12.401Z,3.77
2023-03-17T20:40:39.269Z,3.76
2023-03-17T20:43:05.941Z,3.80
2023-03-17T20:45:32.633Z,3.82
2023-03-17T20:47:59.344Z,3.98
2023-03-17T20:50:25.985Z,4.08
2023-03-17T20:52:52.565Z,3.82
2023-03-17T20:55:19.768Z,3.79
2023-03-17T20:57:46.387Z,3.72
2023-03-17T21:00:15.829Z,3.47
2023-03-17T21:02:42.666Z,3.61
2023-03-17T21:05:13.565Z,3.58
2023-03-17T21:07:40.353Z,3.59
2023-03-17T21:10:07.211Z,3.63
2023-03-17T21:12:34.205Z,3.30
2023-03-17T21:15:00.996Z,3.50
2023-03-17T21:17:27.714Z,3.33
2023-03-17T21:19:54.395Z,3.25
2023-03-17T21:22:20.973Z,3.09
2023-03-17T21:24:47.746Z,3.06
2023-03-17T21:27:14.388Z,2.98
2023-03-17T21:29:41.182Z,3.20
2023-03-17T21:32:07.974Z,3.31
2023-03-17T21:34:35.547Z,2.93
2023-03-17T21:37:02.230Z,2.68
2023-03-17T21:39:29.900Z,2.53
2023-03-17T21:41:57.524Z,2.56
2023-03-17T21:44:24.172Z,2.65
2023-03-17T21:46:51.089Z,2.69
2023-03-17T21:49:18.531Z,2.61
2023-03-17T21:51:46.737Z,2.66
2023-03-17T21:54:14.473Z,2.66
2023-03-17T21:56:42.085Z,2.40
2023-03-17T21:59:09.812Z,2.39
2023-03-17T22:01:40.283Z,2.61
2023-03-17T22:04:07.651Z,2.55
2023-03-17T22:06:34.344Z,2.59
2023-03-17T22:09:01.194Z,2.72
2023-03-17T22:11:27.795Z,2.71
2023-03-17T22:13:55.311Z,2.81
2023-03-17T22:16:22.016Z,2.64
2023-03-17T22:18:48.712Z,2.63
2023-03-17T22:21:15.358Z,2.64
2023-03-17T22:23:42.385Z,2.55
2023-03-17T22:26:12.317Z,2.45
2023-03-17T22:28:39.671Z,2.44
2023-03-17T22:31:14.906Z,2.31
2023-03-17T22:33:41.777Z,2.33
2023-03-17T22:36:09.551Z,2.35
2023-03-17T22:38:37.214Z,2.43
2023-03-17T22:41:09.550Z,2.22
2023-03-17T22:43:36.742Z,2.32
2023-03-17T22:46:04.160Z,2.38
2023-03-17T22:48:30.850Z,2.37
2023-03-17T22:51:01.289Z,2.29
2023-03-17T22:53:27.912Z,2.18
2023-03-17T22:55:54.502Z,2.22
2023-03-17T22:58:21.109Z,2.12
2023-03-17T23:00:47.807Z,2.05
2023-03-17T23:03:14.749Z,2.04
2023-03-17T23:05:45.826Z,2.16
2023-03-17T23:08:12.452Z,2.18
2023-03-17T23:10:39.739Z,2.16
2023-03-17T23:13:06.580Z,2.10
2023-03-17T23:15:33.282Z,1.96
2023-03-17T23:18:00.163Z,1.92
2023-03-17T23:20:26.930Z,1.96
2023-03-17T23:22:54.264Z,1.91
2023-03-17T23:25:21.055Z,1.92
2023-03-17T23:27:48.449Z,2.11
2023-03-17T23:30:15.972Z,1.93
2023-03-17T23:32:42.667Z,1.89
2023-03-17T23:35:11.537Z,1.89
2023-03-17T23:37:38.578Z,1.69
2023-03-17T23:40:06.949Z,1.78
2023-03-17T23:42:33.695Z,1.65
2023-03-17T23:45:00.329Z,1.67
2023-03-17T23:47:26.934Z,1.66
2023-03-17T23:49:53.705Z,1.72
2023-03-17T23:52:21.376Z,1.60
2023-03-17T23:54:48.842Z,1.59
2023-03-17T23:57:15.493Z,1.69
2023-03-17T23:59:42.332Z,1.54
